sensor_id;sensor_type;location;lat;lon;timestamp;P1;durP1;ratioP1;P2;durP2;ratioP2
72941;SDS011;69665;55.822;37.330;2023-08-12T00:01:29;15.98;;;12.13;;
72941;SDS011;69665;55.822;37.330;2023-08-12T00:03:54;20.98;;;12.23;;
72941;SDS011;69665;55.822;37.330;2023-08-12T00:06:20;15.45;;;11.68;;
72941;SDS011;69665;55.822;37.330;2023-08-12T00:08:46;17.60;;;11.98;;
72941;SDS011;69665;55.822;37.330;2023-08-12T00:11:12;21.77;;;13.75;;
72941;SDS011;69665;55.822;37.330;2023-08-12T00:13:37;16.10;;;11.65;;
72941;SDS011;69665;55.822;37.330;2023-08-12T00:16:03;18.23;;;11.15;;
72941;SDS011;69665;55.822;37.330;2023-08-12T00:18:29;18.42;;;12.15;;
72941;SDS011;69665;55.822;37.330;2023-08-12T00:20:54;18.25;;;12.50;;
72941;SDS011;69665;55.822;37.330;2023-08-12T00:23:20;15.73;;;12.02;;
72941;SDS011;69665;55.822;37.330;2023-08-12T00:25:45;15.18;;;11.25;;
72941;SDS011;69665;55.822;37.330;2023-08-12T00:28:11;16.85;;;11.60;;
72941;SDS011;69665;55.822;37.330;2023-08-12T00:30:38;18.60;;;11.88;;
72941;SDS011;69665;55.822;37.330;2023-08-12T00:33:03;14.80;;;10.75;;
72941;SDS011;69665;55.822;37.330;2023-08-12T00:35:29;17.00;;;11.13;;
72941;SDS011;69665;55.822;37.330;2023-08-12T00:37:54;16.88;;;10.75;;
72941;SDS011;69665;55.822;37.330;2023-08-12T00:40:20;16.40;;;10.05;;
72941;SDS011;69665;55.822;37.330;2023-08-12T00:42:45;16.27;;;10.63;;
72941;SDS011;69665;55.822;37.330;2023-08-12T00:45:12;13.32;;;9.63;;
72941;SDS011;69665;55.822;37.330;2023-08-12T00:47:38;16.55;;;10.02;;
72941;SDS011;69665;55.822;37.330;2023-08-12T00:50:05;13.55;;;9.93;;
72941;SDS011;69665;55.822;37.330;2023-08-12T00:52:30;17.95;;;10.23;;
72941;SDS011;69665;55.822;37.330;2023-08-12T00:54:56;15.70;;;10.93;;
72941;SDS011;69665;55.822;37.330;2023-08-12T00:57:22;18.33;;;10.88;;
72941;SDS011;69665;55.822;37.330;2023-08-12T00:59:47;14.38;;;10.30;;
72941;SDS011;69665;55.822;37.330;2023-08-12T01:02:14;15.00;;;11.48;;
72941;SDS011;69665;55.822;37.330;2023-08-12T01:04:39;14.52;;;10.63;;
72941;SDS011;69665;55.822;37.330;2023-08-12T01:07:05;14.10;;;10.15;;
72941;SDS011;69665;55.822;37.330;2023-08-12T01:09:30;15.43;;;9.48;;
72941;SDS011;69665;55.822;37.330;2023-08-12T01:12:02;15.52;;;10.95;;
72941;SDS011;69665;55.822;37.330;2023-08-12T01:17:14;15.32;;;9.77;;
72941;SDS011;69665;55.822;37.330;2023-08-12T01:19:40;16.23;;;11.63;;
72941;SDS011;69665;55.822;37.330;2023-08-12T01:22:09;17.83;;;9.95;;
72941;SDS011;69665;55.822;37.330;2023-08-12T01:24:38;17.73;;;11.07;;
72941;SDS011;69665;55.822;37.330;2023-08-12T01:27:05;16.90;;;10.77;;
72941;SDS011;69665;55.822;37.330;2023-08-12T01:29:35;16.25;;;9.65;;
72941;SDS011;69665;55.822;37.330;2023-08-12T01:34:42;16.30;;;10.98;;
72941;SDS011;69665;55.822;37.330;2023-08-12T01:37:09;18.02;;;10.80;;
72941;SDS011;69665;55.822;37.330;2023-08-12T01:39:38;22.00;;;10.20;;
72941;SDS011;69665;55.822;37.330;2023-08-12T01:42:05;15.20;;;10.20;;
72941;SDS011;69665;55.822;37.330;2023-08-12T01:44:31;15.25;;;10.48;;
72941;SDS011;69665;55.822;37.330;2023-08-12T01:46:56;15.60;;;10.68;;
72941;SDS011;69665;55.822;37.330;2023-08-12T01:49:22;13.63;;;10.27;;
72941;SDS011;69665;55.822;37.330;2023-08-12T01:51:49;14.90;;;11.30;;
72941;SDS011;69665;55.822;37.330;2023-08-12T01:54:15;15.88;;;10.35;;
72941;SDS011;69665;55.822;37.330;2023-08-12T01:56:40;14.50;;;10.93;;
72941;SDS011;69665;55.822;37.330;2023-08-12T01:59:05;14.07;;;10.85;;
72941;SDS011;69665;55.822;37.330;2023-08-12T02:01:31;13.35;;;10.35;;
72941;SDS011;69665;55.822;37.330;2023-08-12T02:03:57;13.32;;;8.88;;
72941;SDS011;69665;55.822;37.330;2023-08-12T02:06:22;17.48;;;11.15;;
72941;SDS011;69665;55.822;37.330;2023-08-12T02:08:48;17.35;;;10.70;;
72941;SDS011;69665;55.822;37.330;2023-08-12T02:11:13;14.57;;;10.02;;
72941;SDS011;69665;55.822;37.330;2023-08-12T02:13:39;15.75;;;11.50;;
72941;SDS011;69665;55.822;37.330;2023-08-12T02:16:04;15.73;;;10.35;;
72941;SDS011;69665;55.822;37.330;2023-08-12T02:18:34;14.20;;;10.70;;
72941;SDS011;69665;55.822;37.330;2023-08-12T02:21:03;14.77;;;10.35;;
72941;SDS011;69665;55.822;37.330;2023-08-12T02:23:28;15.02;;;10.20;;
72941;SDS011;69665;55.822;37.330;2023-08-12T02:25:55;14.63;;;9.90;;
72941;SDS011;69665;55.822;37.330;2023-08-12T02:28:20;16.00;;;9.88;;
72941;SDS011;69665;55.822;37.330;2023-08-12T02:30:46;14.45;;;10.43;;
72941;SDS011;69665;55.822;37.330;2023-08-12T02:33:11;17.65;;;10.32;;
72941;SDS011;69665;55.822;37.330;2023-08-12T02:35:37;15.10;;;10.07;;
72941;SDS011;69665;55.822;37.330;2023-08-12T02:38:03;13.88;;;9.48;;
72941;SDS011;69665;55.822;37.330;2023-08-12T02:40:28;14.10;;;9.35;;
72941;SDS011;69665;55.822;37.330;2023-08-12T02:42:54;14.73;;;9.98;;
72941;SDS011;69665;55.822;37.330;2023-08-12T02:45:19;13.77;;;9.95;;
72941;SDS011;69665;55.822;37.330;2023-08-12T02:47:45;17.27;;;10.80;;
72941;SDS011;69665;55.822;37.330;2023-08-12T02:50:10;15.98;;;10.70;;
72941;SDS011;69665;55.822;37.330;2023-08-12T02:52:36;17.13;;;11.10;;
72941;SDS011;69665;55.822;37.330;2023-08-12T02:55:01;13.15;;;11.10;;
72941;SDS011;69665;55.822;37.330;2023-08-12T02:57:29;15.63;;;10.65;;
72941;SDS011;69665;55.822;37.330;2023-08-12T02:59:54;16.63;;;11.57;;
72941;SDS011;69665;55.822;37.330;2023-08-12T03:02:19;16.65;;;11.27;;
72941;SDS011;69665;55.822;37.330;2023-08-12T03:04:45;17.92;;;11.13;;
72941;SDS011;69665;55.822;37.330;2023-08-12T03:07:10;15.02;;;10.82;;
72941;SDS011;69665;55.822;37.330;2023-08-12T03:09:36;15.93;;;10.50;;
72941;SDS011;69665;55.822;37.330;2023-08-12T03:12:02;19.15;;;10.48;;
72941;SDS011;69665;55.822;37.330;2023-08-12T03:14:28;17.15;;;10.77;;
72941;SDS011;69665;55.822;37.330;2023-08-12T03:16:56;18.80;;;10.85;;
72941;SDS011;69665;55.822;37.330;2023-08-12T03:19:22;19.55;;;11.60;;
72941;SDS011;69665;55.822;37.330;2023-08-12T03:21:47;15.40;;;11.70;;
72941;SDS011;69665;55.822;37.330;2023-08-12T03:24:13;16.67;;;10.30;;
72941;SDS011;69665;55.822;37.330;2023-08-12T03:26:39;15.65;;;10.88;;
72941;SDS011;69665;55.822;37.330;2023-08-12T03:29:05;17.77;;;11.95;;
72941;SDS011;69665;55.822;37.330;2023-08-12T03:31:33;16.52;;;10.77;;
72941;SDS011;69665;55.822;37.330;2023-08-12T03:33:58;18.15;;;11.63;;
72941;SDS011;69665;55.822;37.330;2023-08-12T03:36:25;18.20;;;11.10;;
72941;SDS011;69665;55.822;37.330;2023-08-12T03:38:51;14.90;;;10.65;;
72941;SDS011;69665;55.822;37.330;2023-08-12T03:41:21;16.00;;;12.13;;
72941;SDS011;69665;55.822;37.330;2023-08-12T03:43:47;14.65;;;10.63;;
72941;SDS011;69665;55.822;37.330;2023-08-12T03:46:15;15.68;;;11.50;;
72941;SDS011;69665;55.822;37.330;2023-08-12T03:48:41;16.10;;;10.05;;
72941;SDS011;69665;55.822;37.330;2023-08-12T03:51:07;17.38;;;11.05;;
72941;SDS011;69665;55.822;37.330;2023-08-12T03:53:33;15.80;;;10.98;;
72941;SDS011;69665;55.822;37.330;2023-08-12T03:55:58;15.70;;;11.15;;
72941;SDS011;69665;55.822;37.330;2023-08-12T03:58:24;17.40;;;10.82;;
72941;SDS011;69665;55.822;37.330;2023-08-12T04:00:50;19.40;;;11.30;;
72941;SDS011;69665;55.822;37.330;2023-08-12T04:03:16;18.10;;;11.30;;
72941;SDS011;69665;55.822;37.330;2023-08-12T04:05:48;14.77;;;10.73;;
72941;SDS011;69665;55.822;37.330;2023-08-12T04:08:15;15.10;;;10.55;;
72941;SDS011;69665;55.822;37.330;2023-08-12T04:10:43;16.73;;;11.48;;
72941;SDS011;69665;55.822;37.330;2023-08-12T04:13:09;17.20;;;11.40;;
72941;SDS011;69665;55.822;37.330;2023-08-12T04:15:34;15.50;;;10.48;;
72941;SDS011;69665;55.822;37.330;2023-08-12T04:18:00;15.63;;;10.00;;
72941;SDS011;69665;55.822;37.330;2023-08-12T04:20:25;18.05;;;11.35;;
72941;SDS011;69665;55.822;37.330;2023-08-12T04:22:51;15.70;;;10.65;;
72941;SDS011;69665;55.822;37.330;2023-08-12T04:25:16;17.92;;;11.30;;
72941;SDS011;69665;55.822;37.330;2023-08-12T04:27:42;16.63;;;11.00;;
72941;SDS011;69665;55.822;37.330;2023-08-12T04:30:08;16.98;;;11.05;;
72941;SDS011;69665;55.822;37.330;2023-08-12T04:32:33;17.92;;;11.35;;
72941;SDS011;69665;55.822;37.330;2023-08-12T04:34:59;19.23;;;11.65;;
72941;SDS011;69665;55.822;37.330;2023-08-12T04:37:26;16.65;;;11.23;;
72941;SDS011;69665;55.822;37.330;2023-08-12T04:39:53;16.83;;;11.00;;
72941;SDS011;69665;55.822;37.330;2023-08-12T04:42:19;13.68;;;11.27;;
72941;SDS011;69665;55.822;37.330;2023-08-12T04:44:45;15.85;;;11.23;;
72941;SDS011;69665;55.822;37.330;2023-08-12T04:47:11;16.02;;;12.13;;
72941;SDS011;69665;55.822;37.330;2023-08-12T04:49:36;17.30;;;10.90;;
72941;SDS011;69665;55.822;37.330;2023-08-12T04:52:02;15.68;;;10.00;;
72941;SDS011;69665;55.822;37.330;2023-08-12T04:54:28;16.05;;;11.15;;
72941;SDS011;69665;55.822;37.330;2023-08-12T04:56:55;14.23;;;10.85;;
72941;SDS011;69665;55.822;37.330;2023-08-12T04:59:21;16.45;;;11.05;;
72941;SDS011;69665;55.822;37.330;2023-08-12T05:01:47;14.80;;;10.43;;
72941;SDS011;69665;55.822;37.330;2023-08-12T05:04:13;17.92;;;11.20;;
72941;SDS011;69665;55.822;37.330;2023-08-12T05:06:39;13.88;;;10.52;;
72941;SDS011;69665;55.822;37.330;2023-08-12T05:09:05;14.10;;;9.77;;
72941;SDS011;69665;55.822;37.330;2023-08-12T05:11:31;17.45;;;10.48;;
72941;SDS011;69665;55.822;37.330;2023-08-12T05:13:57;15.68;;;9.90;;
72941;SDS011;69665;55.822;37.330;2023-08-12T05:16:22;14.13;;;9.95;;
72941;SDS011;69665;55.822;37.330;2023-08-12T05:18:48;13.73;;;9.80;;
72941;SDS011;69665;55.822;37.330;2023-08-12T05:21:13;16.65;;;10.07;;
72941;SDS011;69665;55.822;37.330;2023-08-12T05:23:41;18.13;;;9.77;;
72941;SDS011;69665;55.822;37.330;2023-08-12T05:26:07;16.23;;;8.85;;
72941;SDS011;69665;55.822;37.330;2023-08-12T05:28:32;13.07;;;9.25;;
72941;SDS011;69665;55.822;37.330;2023-08-12T05:30:57;13.00;;;9.45;;
72941;SDS011;69665;55.822;37.330;2023-08-12T05:33:23;14.13;;;9.27;;
72941;SDS011;69665;55.822;37.330;2023-08-12T05:35:49;13.75;;;8.70;;
72941;SDS011;69665;55.822;37.330;2023-08-12T05:38:15;14.15;;;9.55;;
72941;SDS011;69665;55.822;37.330;2023-08-12T05:40:40;15.45;;;9.35;;
72941;SDS011;69665;55.822;37.330;2023-08-12T05:43:06;14.57;;;9.75;;
72941;SDS011;69665;55.822;37.330;2023-08-12T05:45:31;14.05;;;8.20;;
72941;SDS011;69665;55.822;37.330;2023-08-12T05:47:57;15.02;;;9.52;;
72941;SDS011;69665;55.822;37.330;2023-08-12T05:50:22;11.82;;;8.45;;
72941;SDS011;69665;55.822;37.330;2023-08-12T05:52:48;15.10;;;8.43;;
72941;SDS011;69665;55.822;37.330;2023-08-12T05:55:13;13.52;;;8.95;;
72941;SDS011;69665;55.822;37.330;2023-08-12T05:57:39;12.77;;;8.95;;
72941;SDS011;69665;55.822;37.330;2023-08-12T06:00:05;15.60;;;8.88;;
72941;SDS011;69665;55.822;37.330;2023-08-12T06:02:37;13.95;;;8.82;;
72941;SDS011;69665;55.822;37.330;2023-08-12T06:05:03;13.15;;;8.48;;
72941;SDS011;69665;55.822;37.330;2023-08-12T06:07:28;15.52;;;7.97;;
72941;SDS011;69665;55.822;37.330;2023-08-12T06:09:54;14.68;;;8.82;;
72941;SDS011;69665;55.822;37.330;2023-08-12T06:12:19;13.00;;;8.48;;
72941;SDS011;69665;55.822;37.330;2023-08-12T06:14:45;12.95;;;8.65;;
72941;SDS011;69665;55.822;37.330;2023-08-12T06:17:11;12.32;;;7.85;;
72941;SDS011;69665;55.822;37.330;2023-08-12T06:19:37;13.77;;;7.82;;
72941;SDS011;69665;55.822;37.330;2023-08-12T06:22:02;13.70;;;8.50;;
72941;SDS011;69665;55.822;37.330;2023-08-12T06:24:28;12.68;;;8.45;;
72941;SDS011;69665;55.822;37.330;2023-08-12T06:26:54;11.20;;;6.97;;
72941;SDS011;69665;55.822;37.330;2023-08-12T06:29:19;13.18;;;8.50;;
72941;SDS011;69665;55.822;37.330;2023-08-12T06:31:44;11.95;;;7.90;;
72941;SDS011;69665;55.822;37.330;2023-08-12T06:34:10;10.70;;;7.00;;
72941;SDS011;69665;55.822;37.330;2023-08-12T06:36:36;11.55;;;7.13;;
72941;SDS011;69665;55.822;37.330;2023-08-12T06:39:01;14.80;;;7.22;;
72941;SDS011;69665;55.822;37.330;2023-08-12T06:41:27;12.48;;;8.18;;
72941;SDS011;69665;55.822;37.330;2023-08-12T06:43:52;11.52;;;7.72;;
72941;SDS011;69665;55.822;37.330;2023-08-12T06:46:18;12.55;;;7.35;;
72941;SDS011;69665;55.822;37.330;2023-08-12T06:48:43;11.23;;;7.10;;
72941;SDS011;69665;55.822;37.330;2023-08-12T06:51:09;13.82;;;7.93;;
72941;SDS011;69665;55.822;37.330;2023-08-12T06:53:38;11.20;;;8.20;;
72941;SDS011;69665;55.822;37.330;2023-08-12T06:56:03;11.48;;;7.38;;
72941;SDS011;69665;55.822;37.330;2023-08-12T06:58:29;15.88;;;8.55;;
72941;SDS011;69665;55.822;37.330;2023-08-12T07:00:55;12.93;;;7.30;;
72941;SDS011;69665;55.822;37.330;2023-08-12T07:03:21;13.00;;;7.82;;
72941;SDS011;69665;55.822;37.330;2023-08-12T07:05:47;12.38;;;8.60;;
72941;SDS011;69665;55.822;37.330;2023-08-12T07:08:12;12.20;;;8.57;;
72941;SDS011;69665;55.822;37.330;2023-08-12T07:10:38;11.30;;;7.45;;
72941;SDS011;69665;55.822;37.330;2023-08-12T07:13:04;12.52;;;7.60;;
72941;SDS011;69665;55.822;37.330;2023-08-12T07:15:29;14.55;;;8.35;;
72941;SDS011;69665;55.822;37.330;2023-08-12T07:17:55;11.52;;;7.47;;
72941;SDS011;69665;55.822;37.330;2023-08-12T07:20:21;10.27;;;7.43;;
72941;SDS011;69665;55.822;37.330;2023-08-12T07:22:46;11.43;;;7.72;;
72941;SDS011;69665;55.822;37.330;2023-08-12T07:25:12;10.43;;;7.68;;
72941;SDS011;69665;55.822;37.330;2023-08-12T07:27:37;12.05;;;8.35;;
72941;SDS011;69665;55.822;37.330;2023-08-12T07:30:03;10.77;;;8.00;;
72941;SDS011;69665;55.822;37.330;2023-08-12T07:32:31;13.18;;;7.38;;
72941;SDS011;69665;55.822;37.330;2023-08-12T07:34:56;14.27;;;8.52;;
72941;SDS011;69665;55.822;37.330;2023-08-12T07:37:22;12.18;;;7.60;;
72941;SDS011;69665;55.822;37.330;2023-08-12T07:39:47;13.05;;;7.63;;
72941;SDS011;69665;55.822;37.330;2023-08-12T07:42:13;11.73;;;7.82;;
72941;SDS011;69665;55.822;37.330;2023-08-12T07:44:38;11.82;;;8.15;;
72941;SDS011;69665;55.822;37.330;2023-08-12T07:47:04;11.10;;;7.95;;
72941;SDS011;69665;55.822;37.330;2023-08-12T07:49:29;11.00;;;7.90;;
72941;SDS011;69665;55.822;37.330;2023-08-12T07:51:55;12.27;;;8.00;;
72941;SDS011;69665;55.822;37.330;2023-08-12T07:54:20;16.00;;;8.10;;
72941;SDS011;69665;55.822;37.330;2023-08-12T07:56:46;11.85;;;8.23;;
72941;SDS011;69665;55.822;37.330;2023-08-12T07:59:11;13.00;;;7.43;;
72941;SDS011;69665;55.822;37.330;2023-08-12T08:01:37;15.27;;;7.28;;
72941;SDS011;69665;55.822;37.330;2023-08-12T08:04:02;11.13;;;7.80;;
72941;SDS011;69665;55.822;37.330;2023-08-12T08:06:28;12.52;;;7.40;;
72941;SDS011;69665;55.822;37.330;2023-08-12T08:08:54;13.25;;;8.18;;
72941;SDS011;69665;55.822;37.330;2023-08-12T08:11:21;19.02;;;9.68;;
72941;SDS011;69665;55.822;37.330;2023-08-12T08:13:46;15.32;;;8.23;;
72941;SDS011;69665;55.822;37.330;2023-08-12T08:16:11;14.15;;;8.98;;
72941;SDS011;69665;55.822;37.330;2023-08-12T08:18:37;15.98;;;8.80;;
72941;SDS011;69665;55.822;37.330;2023-08-12T08:21:02;16.90;;;9.32;;
72941;SDS011;69665;55.822;37.330;2023-08-12T08:23:28;16.83;;;8.90;;
72941;SDS011;69665;55.822;37.330;2023-08-12T08:25:53;12.77;;;8.13;;
72941;SDS011;69665;55.822;37.330;2023-08-12T08:28:19;14.35;;;8.00;;
72941;SDS011;69665;55.822;37.330;2023-08-12T08:30:45;16.15;;;8.95;;
72941;SDS011;69665;55.822;37.330;2023-08-12T08:33:11;13.75;;;8.65;;
72941;SDS011;69665;55.822;37.330;2023-08-12T08:35:36;12.15;;;7.57;;
72941;SDS011;69665;55.822;37.330;2023-08-12T08:38:02;13.70;;;7.75;;
72941;SDS011;69665;55.822;37.330;2023-08-12T08:40:27;14.15;;;8.57;;
72941;SDS011;69665;55.822;37.330;2023-08-12T08:42:53;12.27;;;8.73;;
72941;SDS011;69665;55.822;37.330;2023-08-12T08:45:20;14.93;;;9.57;;
72941;SDS011;69665;55.822;37.330;2023-08-12T08:47:46;14.23;;;8.60;;
72941;SDS011;69665;55.822;37.330;2023-08-12T08:50:12;15.05;;;8.75;;
72941;SDS011;69665;55.822;37.330;2023-08-12T08:52:38;12.25;;;8.63;;
72941;SDS011;69665;55.822;37.330;2023-08-12T08:55:03;13.93;;;9.35;;
72941;SDS011;69665;55.822;37.330;2023-08-12T08:57:29;15.35;;;8.98;;
72941;SDS011;69665;55.822;37.330;2023-08-12T08:59:55;13.95;;;8.68;;
72941;SDS011;69665;55.822;37.330;2023-08-12T09:02:21;16.00;;;9.25;;
72941;SDS011;69665;55.822;37.330;2023-08-12T09:04:46;15.50;;;8.95;;
72941;SDS011;69665;55.822;37.330;2023-08-12T09:07:12;14.40;;;8.95;;
72941;SDS011;69665;55.822;37.330;2023-08-12T09:09:46;15.18;;;10.00;;
72941;SDS011;69665;55.822;37.330;2023-08-12T09:12:14;14.30;;;9.43;;
72941;SDS011;69665;55.822;37.330;2023-08-12T09:14:41;12.73;;;8.88;;
72941;SDS011;69665;55.822;37.330;2023-08-12T09:17:07;15.05;;;9.13;;
72941;SDS011;69665;55.822;37.330;2023-08-12T09:19:36;15.63;;;9.55;;
72941;SDS011;69665;55.822;37.330;2023-08-12T09:22:03;16.02;;;10.02;;
72941;SDS011;69665;55.822;37.330;2023-08-12T09:24:28;15.63;;;10.10;;
72941;SDS011;69665;55.822;37.330;2023-08-12T09:26:55;14.88;;;10.57;;
72941;SDS011;69665;55.822;37.330;2023-08-12T09:29:30;15.70;;;9.90;;
72941;SDS011;69665;55.822;37.330;2023-08-12T09:32:10;14.45;;;9.50;;
72941;SDS011;69665;55.822;37.330;2023-08-12T09:34:36;14.68;;;9.20;;
72941;SDS011;69665;55.822;37.330;2023-08-12T09:37:02;14.18;;;10.32;;
72941;SDS011;69665;55.822;37.330;2023-08-12T09:39:28;13.68;;;9.18;;
72941;SDS011;69665;55.822;37.330;2023-08-12T09:41:54;16.58;;;9.18;;
72941;SDS011;69665;55.822;37.330;2023-08-12T09:44:20;16.45;;;9.65;;
72941;SDS011;69665;55.822;37.330;2023-08-12T09:46:46;13.35;;;8.80;;
72941;SDS011;69665;55.822;37.330;2023-08-12T09:49:12;16.35;;;9.95;;
72941;SDS011;69665;55.822;37.330;2023-08-12T09:51:37;14.95;;;9.57;;
72941;SDS011;69665;55.822;37.330;2023-08-12T09:54:04;18.30;;;10.85;;
72941;SDS011;69665;55.822;37.330;2023-08-12T09:56:30;16.85;;;10.82;;
72941;SDS011;69665;55.822;37.330;2023-08-12T09:58:58;17.27;;;10.90;;
72941;SDS011;69665;55.822;37.330;2023-08-12T10:01:24;14.75;;;10.07;;
72941;SDS011;69665;55.822;37.330;2023-08-12T10:03:50;13.65;;;10.10;;
72941;SDS011;69665;55.822;37.330;2023-08-12T10:06:19;16.50;;;10.38;;
72941;SDS011;69665;55.822;37.330;2023-08-12T10:08:45;19.85;;;9.52;;
72941;SDS011;69665;55.822;37.330;2023-08-12T10:11:11;17.00;;;10.18;;
72941;SDS011;69665;55.822;37.330;2023-08-12T10:13:37;15.75;;;10.35;;
72941;SDS011;69665;55.822;37.330;2023-08-12T10:16:02;15.27;;;10.48;;
72941;SDS011;69665;55.822;37.330;2023-08-12T10:18:28;17.48;;;10.07;;
72941;SDS011;69665;55.822;37.330;2023-08-12T10:20:56;16.10;;;10.00;;
72941;SDS011;69665;55.822;37.330;2023-08-12T10:23:23;15.40;;;10.38;;
72941;SDS011;69665;55.822;37.330;2023-08-12T10:25:49;12.85;;;9.77;;
72941;SDS011;69665;55.822;37.330;2023-08-12T10:28:18;18.35;;;11.48;;
72941;SDS011;69665;55.822;37.330;2023-08-12T10:30:44;14.25;;;10.40;;
72941;SDS011;69665;55.822;37.330;2023-08-12T10:33:10;14.55;;;10.23;;
72941;SDS011;69665;55.822;37.330;2023-08-12T10:38:07;14.98;;;10.50;;
72941;SDS011;69665;55.822;37.330;2023-08-12T10:40:33;16.75;;;11.38;;
72941;SDS011;69665;55.822;37.330;2023-08-12T10:42:59;14.50;;;11.38;;
72941;SDS011;69665;55.822;37.330;2023-08-12T10:45:24;17.63;;;10.00;;
72941;SDS011;69665;55.822;37.330;2023-08-12T10:50:38;15.40;;;10.38;;
72941;SDS011;69665;55.822;37.330;2023-08-12T10:53:27;15.95;;;10.20;;
72941;SDS011;69665;55.822;37.330;2023-08-12T10:55:58;18.92;;;10.45;;
72941;SDS011;69665;55.822;37.330;2023-08-12T10:58:27;15.50;;;11.13;;
72941;SDS011;69665;55.822;37.330;2023-08-12T11:00:54;15.68;;;11.05;;
72941;SDS011;69665;55.822;37.330;2023-08-12T11:03:20;19.92;;;10.80;;
72941;SDS011;69665;55.822;37.330;2023-08-12T11:05:45;18.17;;;11.27;;
72941;SDS011;69665;55.822;37.330;2023-08-12T11:08:11;15.95;;;10.43;;
72941;SDS011;69665;55.822;37.330;2023-08-12T11:10:38;18.83;;;11.10;;
72941;SDS011;69665;55.822;37.330;2023-08-12T11:13:03;17.40;;;11.23;;
72941;SDS011;69665;55.822;37.330;2023-08-12T11:15:33;16.10;;;10.73;;
72941;SDS011;69665;55.822;37.330;2023-08-12T11:17:59;14.73;;;10.48;;
72941;SDS011;69665;55.822;37.330;2023-08-12T11:20:27;16.10;;;10.05;;
72941;SDS011;69665;55.822;37.330;2023-08-12T11:22:53;13.80;;;10.32;;
72941;SDS011;69665;55.822;37.330;2023-08-12T11:25:18;16.98;;;11.05;;
72941;SDS011;69665;55.822;37.330;2023-08-12T11:27:45;16.73;;;11.48;;
72941;SDS011;69665;55.822;37.330;2023-08-12T11:30:15;15.60;;;10.90;;
72941;SDS011;69665;55.822;37.330;2023-08-12T11:32:44;16.33;;;11.88;;
72941;SDS011;69665;55.822;37.330;2023-08-12T11:35:10;18.35;;;11.52;;
72941;SDS011;69665;55.822;37.330;2023-08-12T11:37:36;17.58;;;11.05;;
72941;SDS011;69665;55.822;37.330;2023-08-12T11:40:02;18.33;;;12.98;;
72941;SDS011;69665;55.822;37.330;2023-08-12T11:42:29;19.30;;;13.25;;
72941;SDS011;69665;55.822;37.330;2023-08-12T11:44:54;17.63;;;11.10;;
72941;SDS011;69665;55.822;37.330;2023-08-12T11:47:20;22.38;;;12.30;;
72941;SDS011;69665;55.822;37.330;2023-08-12T11:49:45;23.00;;;14.38;;
72941;SDS011;69665;55.822;37.330;2023-08-12T11:52:10;18.33;;;12.85;;
72941;SDS011;69665;55.822;37.330;2023-08-12T11:54:36;20.55;;;13.43;;
72941;SDS011;69665;55.822;37.330;2023-08-12T11:57:02;21.85;;;13.95;;
72941;SDS011;69665;55.822;37.330;2023-08-12T11:59:28;25.95;;;15.32;;
72941;SDS011;69665;55.822;37.330;2023-08-12T12:01:54;25.98;;;15.57;;
72941;SDS011;69665;55.822;37.330;2023-08-12T12:04:23;27.23;;;15.70;;
72941;SDS011;69665;55.822;37.330;2023-08-12T12:06:49;22.23;;;14.00;;
72941;SDS011;69665;55.822;37.330;2023-08-12T12:09:14;25.67;;;16.65;;
72941;SDS011;69665;55.822;37.330;2023-08-12T12:11:41;24.88;;;16.10;;
72941;SDS011;69665;55.822;37.330;2023-08-12T12:14:07;24.08;;;15.82;;
72941;SDS011;69665;55.822;37.330;2023-08-12T12:19:08;23.55;;;15.45;;
72941;SDS011;69665;55.822;37.330;2023-08-12T12:21:40;23.08;;;14.93;;
72941;SDS011;69665;55.822;37.330;2023-08-12T12:24:06;25.27;;;14.43;;
72941;SDS011;69665;55.822;37.330;2023-08-12T12:26:32;23.50;;;14.88;;
72941;SDS011;69665;55.822;37.330;2023-08-12T12:28:57;25.90;;;15.63;;
72941;SDS011;69665;55.822;37.330;2023-08-12T12:31:23;26.02;;;15.48;;
72941;SDS011;69665;55.822;37.330;2023-08-12T12:33:48;27.33;;;16.48;;
72941;SDS011;69665;55.822;37.330;2023-08-12T12:36:14;24.45;;;15.45;;
72941;SDS011;69665;55.822;37.330;2023-08-12T12:38:39;24.50;;;15.90;;
72941;SDS011;69665;55.822;37.330;2023-08-12T12:41:05;20.60;;;13.73;;
72941;SDS011;69665;55.822;37.330;2023-08-12T12:43:30;25.25;;;15.10;;
72941;SDS011;69665;55.822;37.330;2023-08-12T12:45:56;23.63;;;12.13;;
72941;SDS011;69665;55.822;37.330;2023-08-12T12:48:21;24.92;;;15.10;;
72941;SDS011;69665;55.822;37.330;2023-08-12T12:50:46;25.88;;;15.90;;
72941;SDS011;69665;55.822;37.330;2023-08-12T12:53:12;20.33;;;11.23;;
72941;SDS011;69665;55.822;37.330;2023-08-12T12:55:37;18.45;;;11.75;;
72941;SDS011;69665;55.822;37.330;2023-08-12T12:58:03;18.67;;;10.50;;
72941;SDS011;69665;55.822;37.330;2023-08-12T13:00:28;17.83;;;11.73;;
72941;SDS011;69665;55.822;37.330;2023-08-12T13:02:54;17.63;;;11.98;;
72941;SDS011;69665;55.822;37.330;2023-08-12T13:05:19;16.67;;;11.95;;
72941;SDS011;69665;55.822;37.330;2023-08-12T13:07:45;19.58;;;11.50;;
72941;SDS011;69665;55.822;37.330;2023-08-12T13:10:10;18.05;;;11.40;;
72941;SDS011;69665;55.822;37.330;2023-08-12T13:12:36;19.77;;;11.95;;
72941;SDS011;69665;55.822;37.330;2023-08-12T13:15:01;19.48;;;11.40;;
72941;SDS011;69665;55.822;37.330;2023-08-12T13:17:30;16.23;;;10.88;;
72941;SDS011;69665;55.822;37.330;2023-08-12T13:19:55;18.15;;;10.70;;
72941;SDS011;69665;55.822;37.330;2023-08-12T13:22:21;14.57;;;9.13;;
72941;SDS011;69665;55.822;37.330;2023-08-12T13:24:46;14.65;;;9.10;;
72941;SDS011;69665;55.822;37.330;2023-08-12T13:27:12;15.45;;;9.82;;
72941;SDS011;69665;55.822;37.330;2023-08-12T13:29:38;18.55;;;10.77;;
72941;SDS011;69665;55.822;37.330;2023-08-12T13:32:04;16.70;;;9.27;;
72941;SDS011;69665;55.822;37.330;2023-08-12T13:34:29;16.80;;;10.27;;
72941;SDS011;69665;55.822;37.330;2023-08-12T13:36:55;12.32;;;8.52;;
72941;SDS011;69665;55.822;37.330;2023-08-12T13:39:20;14.02;;;9.00;;
72941;SDS011;69665;55.822;37.330;2023-08-12T13:41:46;16.58;;;9.95;;
72941;SDS011;69665;55.822;37.330;2023-08-12T13:44:12;15.20;;;9.25;;
72941;SDS011;69665;55.822;37.330;2023-08-12T13:46:38;13.63;;;9.30;;
72941;SDS011;69665;55.822;37.330;2023-08-12T13:49:03;14.43;;;8.48;;
72941;SDS011;69665;55.822;37.330;2023-08-12T13:51:29;15.98;;;10.27;;
72941;SDS011;69665;55.822;37.330;2023-08-12T13:53:55;13.43;;;9.15;;
72941;SDS011;69665;55.822;37.330;2023-08-12T13:56:21;15.32;;;9.55;;
72941;SDS011;69665;55.822;37.330;2023-08-12T13:58:46;15.10;;;9.25;;
72941;SDS011;69665;55.822;37.330;2023-08-12T14:01:12;15.57;;;10.23;;
72941;SDS011;69665;55.822;37.330;2023-08-12T14:03:37;12.50;;;8.73;;
72941;SDS011;69665;55.822;37.330;2023-08-12T14:06:03;15.77;;;9.52;;
72941;SDS011;69665;55.822;37.330;2023-08-12T14:08:28;14.63;;;9.73;;
72941;SDS011;69665;55.822;37.330;2023-08-12T14:10:54;17.48;;;10.20;;
72941;SDS011;69665;55.822;37.330;2023-08-12T14:13:19;16.27;;;10.35;;
72941;SDS011;69665;55.822;37.330;2023-08-12T14:15:45;18.08;;;10.18;;
72941;SDS011;69665;55.822;37.330;2023-08-12T14:18:10;18.17;;;10.00;;
72941;SDS011;69665;55.822;37.330;2023-08-12T14:20:36;14.90;;;10.55;;